Abis Cuxhaven — PBYB — position and weather

sailwx.info

Track history (hours):
 
Tides and Currents Weather Stations Pressure Air Temp Water Temp Dewpoint Dewpoint Depression Visibility Wind Speed Wind Dir Waves Ship Positions

Abis Cuxhaven

Last reported at 2014-Nov-23 09:32 UTC. Time now 2014-Nov-23 20:04 UTC.
Position N 58°04' E 006°14'.

Length 114 m; draft 5.9 m.

Type: Cargo ship. MMSI: 246670000.

Date/timePositionNaut miles runAvg speedWind from/ knotsBaromVisibWave heightAir tempDewpointWater temp
2014-Nov-23 09:32N 58°04' E 006°14'7 7.1
2014-Nov-23 08:33N 58°11' E 006°15'8 7.7
2014-Nov-23 07:32N 58°19' E 006°15'1 0.3
2014-Nov-23 04:10N 58°20' E 006°16'0 0.0
2014-Nov-23 02:28N 58°20' E 006°16'0 0.0
2014-Nov-23 01:16N 58°20' E 006°16'0 0.0
2014-Nov-22 23:16N 58°20' E 006°16'0 0.0
2014-Nov-22 18:07N 58°20' E 006°16'0 0.0
2014-Nov-22 17:07N 58°20' E 006°16'0 0.0
2014-Nov-22 16:13N 58°20' E 006°16'0 0.0
2014-Nov-22 12:31N 58°20' E 006°16'0 0.0
2014-Nov-22 09:19N 58°20' E 006°16'0 0.0
2014-Nov-22 08:19N 58°20' E 006°16'1 0.9
2014-Nov-22 07:33N 58°19' E 006°16'2 2.2
2014-Nov-22 06:33N 58°17' E 006°13'3 3.3
2014-Nov-22 05:32N 58°14' E 006°13'5 5.5
2014-Nov-22 04:33N 58°09' E 006°14'6 5.6
2014-Nov-22 03:33N 58°03' E 006°14'259 9.8
2014-Nov-21 01:16N 53°44' E 006°23'810.5
2014-Nov-21 00:32N 53°37' E 006°26'1313.7
2014-Nov-20 23:33N 53°31' E 006°46'4 4.2
2014-Nov-20 22:32N 53°27' E 006°49'0 0.0
2014-Nov-20 21:32N 53°27' E 006°49'0 0.0
2014-Nov-20 20:32N 53°27' E 006°49'0 0.0
2014-Nov-20 19:32N 53°27' E 006°49'0 0.0
2014-Nov-20 18:32N 53°27' E 006°49'0 0.0
2014-Nov-20 17:32N 53°27' E 006°49'0 0.0
2014-Nov-20 16:32N 53°27' E 006°49'0 0.0
2014-Nov-20 15:32N 53°27' E 006°49'0 0.0
2014-Nov-20 14:32N 53°27' E 006°49'0 0.0
2014-Nov-20 13:32N 53°27' E 006°49'0 0.0
2014-Nov-20 12:32N 53°27' E 006°49'0 0.0
2014-Nov-20 11:32N 53°27' E 006°49'0 0.0
2014-Nov-20 10:32N 53°27' E 006°49'0 0.0
2014-Nov-20 09:32N 53°27' E 006°49'0 0.0
2014-Nov-20 08:32N 53°27' E 006°49'0 0.0
2014-Nov-20 07:32N 53°27' E 006°49'0 0.0
2014-Nov-20 06:32N 53°27' E 006°49'0 0.0
2014-Nov-20 05:32N 53°27' E 006°49'0 0.0
2014-Nov-20 04:32N 53°27' E 006°49'0 0.0
2014-Nov-20 03:32N 53°27' E 006°49'0 0.0
2014-Nov-20 02:32N 53°27' E 006°49'0 0.0
2014-Nov-20 01:32N 53°27' E 006°49'0 0.0
2014-Nov-20 00:29N 53°27' E 006°49'0 0.0
2014-Nov-19 23:32N 53°27' E 006°49'0 0.0
2014-Nov-19 22:32N 53°27' E 006°49'0 0.0
2014-Nov-19 21:32N 53°27' E 006°49'0 0.0
2014-Nov-19 20:32N 53°27' E 006°49'2 1.7
2014-Nov-19 19:33N 53°29' E 006°50'1111.1
2014-Nov-19 18:33N 53°36' E 006°35'284 6.1
2014-Nov-17 20:13N 58°20' E 006°16'0 0.0
2014-Nov-17 17:07N 58°20' E 006°16'0 0.0
2014-Nov-17 16:22N 58°20' E 006°16'0 0.0
2014-Nov-17 10:10N 58°20' E 006°16'0 0.0
2014-Nov-17 07:31N 58°20' E 006°16'2 2.4
2014-Nov-17 06:33N 58°18' E 006°13'3 2.5
2014-Nov-17 05:33N 58°16' E 006°10'2 2.5
2014-Nov-17 04:33N 58°15' E 006°05'3 3.3
2014-Nov-17 03:33N 58°16' E 005°59'4 3.5
2014-Nov-17 02:33N 58°16' E 005°52'3 3.4
2014-Nov-17 01:33N 58°16' E 005°46'3 3.4
2014-Nov-17 00:33N 58°16' E 005°39'4 3.8
2014-Nov-16 23:33N 58°16' E 005°32'5 3.8
2014-Nov-16 22:19N 58°13' E 005°24'279 8.4
2014-Nov-15 13:15N 53°37' E 006°32'710.0
2014-Nov-15 12:33N 53°33' E 006°42'7 7.4
2014-Nov-15 11:33N 53°27' E 006°49'0 0.0
2014-Nov-15 10:33N 53°27' E 006°49'0 0.0
2014-Nov-15 09:33N 53°27' E 006°49'0 0.0
2014-Nov-15 08:33N 53°27' E 006°49'0 0.0
2014-Nov-15 07:33N 53°27' E 006°49'0 0.0
2014-Nov-15 06:33N 53°27' E 006°49'0 0.0
2014-Nov-15 05:33N 53°27' E 006°49'0 0.0
2014-Nov-15 04:33N 53°27' E 006°49'0 0.0
2014-Nov-15 03:33N 53°27' E 006°49'0 0.0
2014-Nov-15 02:33N 53°27' E 006°49'0 0.0
2014-Nov-15 01:33N 53°27' E 006°49'0 0.0
2014-Nov-15 00:33N 53°27' E 006°49'0 0.0
2014-Nov-14 23:33N 53°27' E 006°49'0 0.0
2014-Nov-14 22:33N 53°27' E 006°49'0 0.0
2014-Nov-14 21:33N 53°27' E 006°49'0 0.0
2014-Nov-14 20:33N 53°27' E 006°49'0 0.0
2014-Nov-14 19:33N 53°27' E 006°49'0 0.0
2014-Nov-14 18:33N 53°27' E 006°49'0 0.0
2014-Nov-14 17:33N 53°27' E 006°49'0 0.0
2014-Nov-14 16:33N 53°27' E 006°49'0 0.0
2014-Nov-14 15:33N 53°27' E 006°49'0 0.0
2014-Nov-14 14:33N 53°27' E 006°49'0 0.0
2014-Nov-14 12:33N 53°27' E 006°49'0 0.0
2014-Nov-14 11:33N 53°27' E 006°49'0 0.0
2014-Nov-14 10:33N 53°27' E 006°49'0 0.0
2014-Nov-14 09:33N 53°27' E 006°49'0 0.0
2014-Nov-14 08:33N 53°27' E 006°49'0 0.0
2014-Nov-14 07:33N 53°27' E 006°49'0 0.0
2014-Nov-14 06:33N 53°27' E 006°49'0 0.0
2014-Nov-14 05:33N 53°27' E 006°49'0 0.0
2014-Nov-14 04:33N 53°27' E 006°49'4 4.4
2014-Nov-14 03:33N 53°31' E 006°46'1010.0
2014-Nov-14 02:33N 53°37' E 006°32'9 8.5
2014-Nov-14 01:31N 53°41' E 006°19'  
Track history (hours):
 
Tides and Currents Weather Stations Pressure Air Temp Water Temp Dewpoint Dewpoint Depression Visibility Wind Speed Wind Dir Waves Ship Positions

Abis Cuxhaven

Last reported at 2014-Nov-23 09:32 UTC. Time now 2014-Nov-23 20:04 UTC.
Position N 58°04' E 006°14'.

Length 114 m; draft 5.9 m.

Type: Cargo ship. MMSI: 246670000.

Date/timePositionNaut miles runAvg speedWind from/ knotsBaromVisibWave heightAir tempDewpointWater temp
2014-Nov-23 09:32N 58°04' E 006°14'7 7.1
2014-Nov-23 08:33N 58°11' E 006°15'8 7.7
2014-Nov-23 07:32N 58°19' E 006°15'1 0.3
2014-Nov-23 04:10N 58°20' E 006°16'0 0.0
2014-Nov-23 02:28N 58°20' E 006°16'0 0.0
2014-Nov-23 01:16N 58°20' E 006°16'0 0.0
2014-Nov-22 23:16N 58°20' E 006°16'0 0.0
2014-Nov-22 18:07N 58°20' E 006°16'0 0.0
2014-Nov-22 17:07N 58°20' E 006°16'0 0.0
2014-Nov-22 16:13N 58°20' E 006°16'0 0.0
2014-Nov-22 12:31N 58°20' E 006°16'0 0.0
2014-Nov-22 09:19N 58°20' E 006°16'0 0.0
2014-Nov-22 08:19N 58°20' E 006°16'1 0.9
2014-Nov-22 07:33N 58°19' E 006°16'2 2.2
2014-Nov-22 06:33N 58°17' E 006°13'3 3.3
2014-Nov-22 05:32N 58°14' E 006°13'5 5.5
2014-Nov-22 04:33N 58°09' E 006°14'6 5.6
2014-Nov-22 03:33N 58°03' E 006°14'259 9.8
2014-Nov-21 01:16N 53°44' E 006°23'810.5
2014-Nov-21 00:32N 53°37' E 006°26'1313.7
2014-Nov-20 23:33N 53°31' E 006°46'4 4.2
2014-Nov-20 22:32N 53°27' E 006°49'0 0.0
2014-Nov-20 21:32N 53°27' E 006°49'0 0.0
2014-Nov-20 20:32N 53°27' E 006°49'0 0.0
2014-Nov-20 19:32N 53°27' E 006°49'0 0.0
2014-Nov-20 18:32N 53°27' E 006°49'0 0.0
2014-Nov-20 17:32N 53°27' E 006°49'0 0.0
2014-Nov-20 16:32N 53°27' E 006°49'0 0.0
2014-Nov-20 15:32N 53°27' E 006°49'0 0.0
2014-Nov-20 14:32N 53°27' E 006°49'0 0.0
2014-Nov-20 13:32N 53°27' E 006°49'0 0.0
2014-Nov-20 12:32N 53°27' E 006°49'0 0.0
2014-Nov-20 11:32N 53°27' E 006°49'0 0.0
2014-Nov-20 10:32N 53°27' E 006°49'0 0.0
2014-Nov-20 09:32N 53°27' E 006°49'0 0.0
2014-Nov-20 08:32N 53°27' E 006°49'0 0.0
2014-Nov-20 07:32N 53°27' E 006°49'0 0.0
2014-Nov-20 06:32N 53°27' E 006°49'0 0.0
2014-Nov-20 05:32N 53°27' E 006°49'0 0.0
2014-Nov-20 04:32N 53°27' E 006°49'0 0.0
2014-Nov-20 03:32N 53°27' E 006°49'0 0.0
2014-Nov-20 02:32N 53°27' E 006°49'0 0.0
2014-Nov-20 01:32N 53°27' E 006°49'0 0.0
2014-Nov-20 00:29N 53°27' E 006°49'0 0.0
2014-Nov-19 23:32N 53°27' E 006°49'0 0.0
2014-Nov-19 22:32N 53°27' E 006°49'0 0.0
2014-Nov-19 21:32N 53°27' E 006°49'0 0.0
2014-Nov-19 20:32N 53°27' E 006°49'2 1.7
2014-Nov-19 19:33N 53°29' E 006°50'1111.1
2014-Nov-19 18:33N 53°36' E 006°35'284 6.1
2014-Nov-17 20:13N 58°20' E 006°16'0 0.0
2014-Nov-17 17:07N 58°20' E 006°16'0 0.0
2014-Nov-17 16:22N 58°20' E 006°16'0 0.0
2014-Nov-17 10:10N 58°20' E 006°16'0 0.0
2014-Nov-17 07:31N 58°20' E 006°16'2 2.4
2014-Nov-17 06:33N 58°18' E 006°13'3 2.5
2014-Nov-17 05:33N 58°16' E 006°10'2 2.5
2014-Nov-17 04:33N 58°15' E 006°05'3 3.3
2014-Nov-17 03:33N 58°16' E 005°59'4 3.5
2014-Nov-17 02:33N 58°16' E 005°52'3 3.4
2014-Nov-17 01:33N 58°16' E 005°46'3 3.4
2014-Nov-17 00:33N 58°16' E 005°39'4 3.8
2014-Nov-16 23:33N 58°16' E 005°32'5 3.8
2014-Nov-16 22:19N 58°13' E 005°24'279 8.4
2014-Nov-15 13:15N 53°37' E 006°32'710.0
2014-Nov-15 12:33N 53°33' E 006°42'7 7.4
2014-Nov-15 11:33N 53°27' E 006°49'0 0.0
2014-Nov-15 10:33N 53°27' E 006°49'0 0.0
2014-Nov-15 09:33N 53°27' E 006°49'0 0.0
2014-Nov-15 08:33N 53°27' E 006°49'0 0.0
2014-Nov-15 07:33N 53°27' E 006°49'0 0.0
2014-Nov-15 06:33N 53°27' E 006°49'0 0.0
2014-Nov-15 05:33N 53°27' E 006°49'0 0.0
2014-Nov-15 04:33N 53°27' E 006°49'0 0.0
2014-Nov-15 03:33N 53°27' E 006°49'0 0.0
2014-Nov-15 02:33N 53°27' E 006°49'0 0.0
2014-Nov-15 01:33N 53°27' E 006°49'0 0.0
2014-Nov-15 00:33N 53°27' E 006°49'0 0.0
2014-Nov-14 23:33N 53°27' E 006°49'0 0.0
2014-Nov-14 22:33N 53°27' E 006°49'0 0.0
2014-Nov-14 21:33N 53°27' E 006°49'0 0.0
2014-Nov-14 20:33N 53°27' E 006°49'0 0.0
2014-Nov-14 19:33N 53°27' E 006°49'0 0.0
2014-Nov-14 18:33N 53°27' E 006°49'0 0.0
2014-Nov-14 17:33N 53°27' E 006°49'0 0.0
2014-Nov-14 16:33N 53°27' E 006°49'0 0.0
2014-Nov-14 15:33N 53°27' E 006°49'0 0.0
2014-Nov-14 14:33N 53°27' E 006°49'0 0.0
2014-Nov-14 12:33N 53°27' E 006°49'0 0.0
2014-Nov-14 11:33N 53°27' E 006°49'0 0.0
2014-Nov-14 10:33N 53°27' E 006°49'0 0.0
2014-Nov-14 09:33N 53°27' E 006°49'0 0.0
2014-Nov-14 08:33N 53°27' E 006°49'0 0.0
2014-Nov-14 07:33N 53°27' E 006°49'0 0.0
2014-Nov-14 06:33N 53°27' E 006°49'0 0.0
2014-Nov-14 05:33N 53°27' E 006°49'0 0.0
2014-Nov-14 04:33N 53°27' E 006°49'4 4.4
2014-Nov-14 03:33N 53°31' E 006°46'1010.0
2014-Nov-14 02:33N 53°37' E 006°32'9 8.5
2014-Nov-14 01:31N 53°41' E 006°19'  

Dump ship's entire track history